Time;durP1;ratioP1;P1;durP2;ratioP2;P2;SDS_P1;SDS_P2;PMS_P1;PMS_P2;Temp;Humidity;BMP_temperature;BMP_pressure;BME280_temperature;BME280_humidity;BME280_pressure;Samples;Min_cycle;Max_cycle;Signal;HPM_P1;HPM_P2
2023/05/13 00:01:37;;;;;;;6.13;3.03;;;;;;;8.47;100.00;62874.50;5006321;28;20377;-78
2023/05/13 00:04:04;;;;;;;2.60;2.13;;;;;;;8.41;99.50;62865.25;5004254;28;20405;-77
2023/05/13 00:06:32;;;;;;;2.55;2.03;;;;;;;8.28;100.00;62859.94;5005310;28;20260;-75
2023/05/13 00:08:59;;;;;;;2.47;2.28;;;;;;;8.21;100.00;62848.13;4994917;28;20201;-76
2023/05/13 00:11:27;;;;;;;2.67;2.47;;;;;;;8.21;100.00;62843.06;5000130;28;20458;-75
2023/05/13 00:13:56;;;;;;;2.15;2.05;;;;;;;8.16;100.00;62839.94;5002660;28;20211;-76
2023/05/13 00:16:26;;;;;;;3.83;2.38;;;;;;;8.15;100.00;62838.88;4999149;28;20259;-74
2023/05/13 00:18:55;;;;;;;2.70;2.50;;;;;;;8.14;100.00;62840.91;5004774;28;20227;-77
2023/05/13 00:21:23;;;;;;;2.40;2.30;;;;;;;8.06;100.00;62824.50;5005397;28;20219;-77
2023/05/13 00:23:50;;;;;;;2.42;2.28;;;;;;;8.19;100.00;62846.06;5004864;28;20229;-76
2023/05/13 00:26:17;;;;;;;3.53;2.10;;;;;;;8.20;100.00;62842.03;5002467;28;20358;-76
2023/05/13 00:28:44;;;;;;;5.85;2.47;;;;;;;8.19;100.00;62843.03;4985636;28;20204;-75
2023/05/13 00:31:12;;;;;;;3.38;2.50;;;;;;;8.33;100.00;62856.97;4995267;28;20237;-77
2023/05/13 00:33:39;;;;;;;3.88;2.78;;;;;;;8.34;100.00;62860.53;5006184;28;20214;-77
2023/05/13 00:36:11;;;;;;;2.72;2.55;;;;;;;8.53;100.00;62880.16;4995925;28;20421;-76
2023/05/13 00:38:38;;;;;;;4.00;3.35;;;;;;;8.72;100.00;62899.81;4988660;28;20199;-77
2023/05/13 00:41:06;;;;;;;6.75;5.13;;;;;;;8.62;100.00;62884.91;5005590;28;20223;-74
2023/05/13 00:43:33;;;;;;;6.13;5.50;;;;;;;8.67;100.00;62897.19;5006010;28;20206;-78
2023/05/13 00:46:00;;;;;;;5.97;5.22;;;;;;;8.76;100.00;62898.88;5004564;28;20223;-76
2023/05/13 00:48:27;;;;;;;6.68;5.80;;;;;;;8.53;100.00;62877.63;5003828;28;20264;-75
2023/05/13 00:50:57;;;;;;;6.45;5.88;;;;;;;8.51;100.00;62876.09;5006208;28;20203;-79
2023/05/13 00:53:26;;;;;;;5.68;4.85;;;;;;;8.60;100.00;62885.38;5001252;28;20260;-77
2023/05/13 00:55:53;;;;;;;5.03;4.63;;;;;;;8.62;100.00;62884.41;4988384;28;20394;-76
2023/05/13 00:58:20;;;;;;;5.28;4.78;;;;;;;8.62;100.00;62884.91;5002740;28;20583;-77
2023/05/13 01:00:55;;;;;;;4.82;4.40;;;;;;;8.65;100.00;62888.00;5004911;28;20199;-77
2023/05/13 01:03:33;;;;;;;6.90;6.20;;;;;;;8.72;100.00;62897.25;5004101;28;20207;-76
2023/05/13 01:06:09;;;;;;;6.72;5.25;;;;;;;8.74;100.00;62901.88;5004831;28;20270;-75
2023/05/13 01:08:47;;;;;;;5.80;5.22;;;;;;;8.76;100.00;62893.78;5005824;28;20215;-76
2023/05/13 01:11:19;;;;;;;7.55;5.65;;;;;;;8.75;100.00;62897.84;5004684;28;20234;-76
2023/05/13 01:13:51;;;;;;;8.30;5.60;;;;;;;8.61;100.00;62883.88;5002005;28;20234;-77
2023/05/13 01:16:21;;;;;;;6.13;5.20;;;;;;;8.55;100.00;62877.69;5005311;28;20479;-79
2023/05/13 01:18:58;;;;;;;6.57;5.97;;;;;;;8.59;100.00;62881.31;5005397;28;20519;-77
2023/05/13 01:21:28;;;;;;;9.70;6.47;;;;;;;8.68;100.00;62893.16;5002156;28;20241;-76
2023/05/13 01:23:56;;;;;;;8.27;6.82;;;;;;;8.63;100.00;62885.44;5004651;28;20213;-76
2023/05/13 01:26:25;;;;;;;8.25;6.28;;;;;;;8.71;100.00;62896.25;5006388;28;20238;-76
2023/05/13 01:28:52;;;;;;;7.80;7.00;;;;;;;8.74;100.00;62897.31;5006813;28;20230;-77
2023/05/13 01:31:21;;;;;;;7.82;6.82;;;;;;;8.89;100.00;62915.34;5003430;28;20417;-76
2023/05/13 01:33:50;;;;;;;12.65;7.32;;;;;;;8.94;100.00;62920.00;5005280;28;20206;-77
2023/05/13 01:36:18;;;;;;;8.63;7.18;;;;;;;9.03;100.00;62929.81;5005015;28;20429;-76
2023/05/13 01:38:47;;;;;;;8.50;7.28;;;;;;;9.08;100.00;62935.00;4999008;28;20443;-76
2023/05/13 01:41:14;;;;;;;7.22;6.50;;;;;;;9.05;100.00;62931.38;4996437;28;20203;-76
2023/05/13 01:43:42;;;;;;;7.47;6.75;;;;;;;9.04;100.00;62932.88;5007408;28;20210;-76
2023/05/13 01:46:13;;;;;;;8.68;6.78;;;;;;;9.02;100.00;62928.81;5005577;28;20227;-77
2023/05/13 01:48:40;;;;;;;11.52;7.13;;;;;;;9.06;100.00;62929.88;4995385;28;20352;-76
2023/05/13 01:51:07;;;;;;;7.97;7.18;;;;;;;9.03;100.00;62926.75;4991369;28;20200;-77
2023/05/13 01:53:35;;;;;;;7.50;6.25;;;;;;;9.00;100.00;62924.19;4988270;28;20200;-77
2023/05/13 01:56:05;;;;;;;7.40;6.60;;;;;;;8.98;100.00;62929.22;4988402;28;20260;-78
2023/05/13 01:58:32;;;;;;;8.38;7.20;;;;;;;8.99;100.00;62927.72;5007152;28;20211;-78
2023/05/13 02:01:00;;;;;;;7.28;6.50;;;;;;;8.94;100.00;62920.50;5008223;28;20204;-77
2023/05/13 02:03:27;;;;;;;7.57;6.68;;;;;;;8.94;100.00;62923.06;5008124;28;20207;-76
2023/05/13 02:05:55;;;;;;;7.45;6.15;;;;;;;8.92;100.00;62921.00;5006532;28;20602;-77
2023/05/13 02:08:24;;;;;;;7.05;6.13;;;;;;;8.87;100.00;62912.78;5007135;28;20250;-76
2023/05/13 02:10:55;;;;;;;8.48;5.75;;;;;;;8.90;100.00;62923.50;5008099;28;20418;-77
2023/05/13 02:13:24;;;;;;;9.68;6.18;;;;;;;8.87;100.00;62913.28;5007634;28;20231;-78
2023/05/13 02:15:52;;;;;;;6.80;5.70;;;;;;;8.96;100.00;62919.53;4993966;28;20309;-77
2023/05/13 02:18:21;;;;;;;7.07;5.80;;;;;;;8.95;100.00;62923.59;5006931;28;20215;-77
2023/05/13 02:20:48;;;;;;;5.65;5.18;;;;;;;8.89;100.00;62912.28;5008873;28;20219;-76
2023/05/13 02:23:16;;;;;;;5.78;5.28;;;;;;;8.74;100.00;62899.84;5006014;28;20222;-76
2023/05/13 02:25:43;;;;;;;7.07;5.47;;;;;;;8.75;100.00;62898.34;5005945;28;20282;-76
2023/05/13 02:28:11;;;;;;;6.43;4.55;;;;;;;8.66;100.00;62888.53;5007679;28;20543;-76
2023/05/13 02:30:40;;;;;;;4.10;3.67;;;;;;;8.66;100.00;62893.63;5007359;28;20207;-76
2023/05/13 02:33:08;;;;;;;4.57;4.18;;;;;;;8.70;100.00;62895.72;4998847;28;20224;-78
2023/05/13 02:35:35;;;;;;;3.75;3.55;;;;;;;8.57;100.00;62882.28;5002647;28;20261;-76
2023/05/13 02:38:03;;;;;;;4.53;4.13;;;;;;;8.61;100.00;62883.88;5006791;28;20219;-76
2023/05/13 02:40:31;;;;;;;5.75;4.63;;;;;;;8.68;100.00;62890.59;5007751;28;20226;-76
2023/05/13 02:42:58;;;;;;;7.28;5.43;;;;;;;8.72;100.00;62892.19;4993673;28;20267;-76
2023/05/13 02:45:25;;;;;;;8.77;5.75;;;;;;;8.66;100.00;62888.53;5007849;28;20251;-77
2023/05/13 02:47:54;;;;;;;8.10;5.85;;;;;;;8.48;100.00;62872.47;5006308;28;20235;-76
2023/05/13 02:50:21;;;;;;;7.60;6.07;;;;;;;8.34;100.00;62852.94;5005820;28;20218;-78
2023/05/13 02:52:48;;;;;;;6.95;6.35;;;;;;;8.27;100.00;62856.38;5007685;28;20239;-75
2023/05/13 02:55:15;;;;;;;7.32;6.63;;;;;;;8.37;100.00;62861.63;5007023;28;20231;-77
2023/05/13 02:57:43;;;;;;;7.25;5.85;;;;;;;8.40;100.00;62862.19;5006430;28;20479;-76
2023/05/13 03:00:11;;;;;;;9.10;6.50;;;;;;;8.55;100.00;62877.69;5006610;28;20489;-75
2023/05/13 03:02:38;;;;;;;7.63;6.18;;;;;;;8.69;100.00;62889.63;5003953;28;20227;-77
2023/05/13 03:05:08;;;;;;;6.55;5.82;;;;;;;8.73;100.00;62895.78;5007509;28;20231;-76
2023/05/13 03:07:35;;;;;;;7.10;6.43;;;;;;;8.79;100.00;62904.50;5006116;28;20220;-77
2023/05/13 03:10:03;;;;;;;7.28;6.63;;;;;;;8.88;100.00;62911.78;5007292;28;20204;-76
2023/05/13 03:12:30;;;;;;;13.43;7.25;;;;;;;8.83;100.00;62911.69;5004643;28;20235;-77
2023/05/13 03:14:57;;;;;;;10.10;6.95;;;;;;;8.77;100.00;62902.44;5007349;28;20200;-77
2023/05/13 03:17:25;;;;;;;8.48;7.13;;;;;;;8.51;100.00;62873.03;5003498;28;20223;-75
2023/05/13 03:19:52;;;;;;;8.35;7.53;;;;;;;8.47;100.00;62871.97;4995917;28;20199;-76
2023/05/13 03:22:21;;;;;;;9.30;6.88;;;;;;;8.62;100.00;62886.94;5006220;28;20219;-76
2023/05/13 03:24:48;;;;;;;7.93;6.43;;;;;;;8.73;100.00;62898.81;5006637;28;20294;-75
2023/05/13 03:27:16;;;;;;;8.48;6.32;;;;;;;8.73;100.00;62898.31;5005019;28;20226;-77
2023/05/13 03:29:43;;;;;;;7.60;6.82;;;;;;;8.74;100.00;62899.84;5004145;28;20218;-78
2023/05/13 03:32:10;;;;;;;10.38;6.57;;;;;;;8.73;100.00;62895.78;5006268;28;20223;-77
2023/05/13 03:34:38;;;;;;;7.75;7.00;;;;;;;8.77;100.00;62902.44;5005968;28;20208;-76
2023/05/13 03:37:06;;;;;;;7.63;6.90;;;;;;;8.82;100.00;62905.06;5007297;28;20231;-76
2023/05/13 03:39:35;;;;;;;9.07;6.25;;;;;;;8.81;100.00;62906.56;5006170;28;20275;-75
2023/05/13 03:42:02;;;;;;;6.55;5.95;;;;;;;8.84;100.00;62905.09;5005500;28;20239;-76
2023/05/13 03:44:30;;;;;;;7.00;6.43;;;;;;;8.92;100.00;62912.88;5005329;28;20238;-77
2023/05/13 03:46:57;;;;;;;7.70;6.88;;;;;;;8.95;100.00;62923.59;5004322;28;20516;-75
2023/05/13 03:49:24;;;;;;;7.32;6.53;;;;;;;8.95;100.00;62916.47;5005692;28;20209;-75
2023/05/13 03:51:51;;;;;;;8.30;6.70;;;;;;;9.00;100.00;62924.19;5005915;28;20249;-75
2023/05/13 03:54:18;;;;;;;9.88;5.93;;;;;;;9.05;100.00;62934.44;5002914;28;20191;-76
2023/05/13 03:56:47;;;;;;;7.10;6.32;;;;;;;9.06;100.00;62929.88;5005608;28;20291;-75
2023/05/13 03:59:14;;;;;;;6.70;6.00;;;;;;;9.12;100.00;62938.59;5006847;28;20209;-76
2023/05/13 04:01:41;;;;;;;9.05;7.47;;;;;;;9.21;100.00;62945.88;5005126;28;20207;-75
2023/05/13 04:04:08;;;;;;;6.75;6.15;;;;;;;9.28;100.00;62952.63;4996038;28;20199;-76
2023/05/13 04:06:35;;;;;;;8.77;6.05;;;;;;;9.22;100.00;62949.47;5004818;28;20242;-77
2023/05/13 04:09:03;;;;;;;7.10;6.45;;;;;;;9.34;100.00;62958.81;5004916;28;20402;-77
2023/05/13 04:11:30;;;;;;;7.25;5.57;;;;;;;9.46;100.00;62968.66;5004863;28;20226;-76
2023/05/13 04:14:00;;;;;;;7.60;5.35;;;;;;;9.38;100.00;62962.94;5004086;28;20231;-76
2023/05/13 04:16:28;;;;;;;6.88;5.38;;;;;;;9.29;100.00;62956.69;5005747;28;20220;-74
2023/05/13 04:18:55;;;;;;;8.85;6.05;;;;;;;9.24;100.00;62949.00;5005155;28;20200;-76
2023/05/13 04:21:22;;;;;;;7.60;5.65;;;;;;;9.18;100.00;62945.31;4997433;28;20224;-75
2023/05/13 04:23:49;;;;;;;8.82;6.35;;;;;;;9.25;100.00;62954.56;4996068;28;21076;-75
2023/05/13 04:26:16;;;;;;;8.43;6.10;;;;;;;9.09;100.00;62932.97;5001139;28;20243;-75
2023/05/13 04:28:43;;;;;;;6.13;5.63;;;;;;;9.00;100.00;62928.75;4986032;28;20523;-76
2023/05/13 04:31:12;;;;;;;6.60;5.80;;;;;;;8.98;100.00;62924.66;4985666;28;20192;-77
2023/05/13 04:33:39;;;;;;;6.88;5.88;;;;;;;9.19;100.00;62946.38;4999391;28;20210;-76
2023/05/13 04:36:07;;;;;;;10.20;6.43;;;;;;;9.17;100.00;62943.78;5005386;28;20195;-75
2023/05/13 04:38:34;;;;;;;6.82;6.22;;;;;;;9.21;100.00;62947.91;5005412;28;20202;-76
2023/05/13 04:41:02;;;;;;;8.45;6.25;;;;;;;9.45;100.00;62972.72;5001009;28;20258;-77
2023/05/13 04:43:29;;;;;;;6.93;5.60;;;;;;;9.60;100.00;62985.69;5004942;28;20219;-75
2023/05/13 04:45:57;;;;;;;6.30;5.72;;;;;;;9.63;100.00;62990.84;5005691;28;20235;-74
2023/05/13 04:48:28;;;;;;;8.80;6.47;;;;;;;9.62;100.00;62987.75;5004901;28;20251;-75
2023/05/13 04:50:55;;;;;;;6.40;5.80;;;;;;;9.64;100.00;62991.84;5001871;28;20203;-76
2023/05/13 04:53:22;;;;;;;8.60;6.72;;;;;;;9.69;100.00;62997.03;5004787;28;20203;-75
2023/05/13 04:55:51;;;;;;;6.82;6.22;;;;;;;9.47;100.00;62972.25;5002140;28;20199;-75
2023/05/13 04:58:18;;;;;;;6.78;6.10;;;;;;;9.19;100.00;62943.84;5004103;28;20222;-76
2023/05/13 05:00:46;;;;;;;9.65;6.63;;;;;;;9.31;100.00;62958.78;4985389;28;20206;-77
2023/05/13 05:03:13;;;;;;;7.25;6.22;;;;;;;9.45;100.00;62975.28;4996165;28;20222;-76
2023/05/13 05:05:42;;;;;;;7.63;5.93;;;;;;;9.70;100.00;62998.56;5003480;28;20421;-77
2023/05/13 05:08:09;;;;;;;6.85;6.15;;;;;;;9.92;100.00;63018.78;5000170;28;20528;-77
2023/05/13 05:10:36;;;;;;;7.78;5.95;;;;;;;10.25;100.00;63052.44;4985044;28;20226;-75
2023/05/13 05:13:04;;;;;;;6.65;6.03;;;;;;;10.29;100.00;63061.66;4985672;28;20228;-76
2023/05/13 05:15:31;;;;;;;6.70;6.10;;;;;;;10.24;100.00;63057.00;4998791;28;20208;-76
2023/05/13 05:17:58;;;;;;;8.00;6.38;;;;;;;10.03;100.00;63034.72;4999128;28;20250;-78
2023/05/13 05:20:25;;;;;;;9.57;6.70;;;;;;;10.05;100.00;63034.78;5002192;28;20191;-77
2023/05/13 05:22:54;;;;;;;13.65;6.43;;;;;;;10.53;100.00;63081.41;5003698;28;20232;-77
2023/05/13 05:25:21;;;;;;;10.85;6.60;;;;;;;10.97;100.00;63128.97;5006850;28;20249;-77
2023/05/13 05:27:48;;;;;;;9.60;6.75;;;;;;;10.93;100.00;63124.84;5005370;28;20302;-75
2023/05/13 05:30:15;;;;;;;8.32;7.10;;;;;;;10.86;100.00;63115.56;5006819;28;20192;-77
2023/05/13 05:32:42;;;;;;;7.28;6.55;;;;;;;11.22;100.00;63157.94;5005654;28;20219;-77
2023/05/13 05:35:10;;;;;;;8.85;6.60;;;;;;;11.43;99.33;63177.13;5004417;28;20211;-76
2023/05/13 05:37:39;;;;;;;8.85;6.53;;;;;;;11.22;99.96;63155.38;5006417;28;20246;-76
2023/05/13 05:40:10;;;;;;;7.10;6.43;;;;;;;10.91;100.00;63122.75;5005423;28;20203;-77
2023/05/13 05:42:37;;;;;;;8.05;7.25;;;;;;;10.74;100.00;63103.13;5003454;28;20223;-76
2023/05/13 05:45:04;;;;;;;12.50;7.03;;;;;;;10.63;100.00;63094.28;5006083;28;20212;-76
2023/05/13 05:47:31;;;;;;;9.65;7.00;;;;;;;10.67;100.00;63097.91;5003531;28;20231;-76
2023/05/13 05:49:59;;;;;;;8.90;7.47;;;;;;;10.62;100.00;63090.72;5007122;28;20248;-77
2023/05/13 05:52:26;;;;;;;9.55;7.97;;;;;;;10.67;100.00;63095.91;5006993;28;20219;-78
2023/05/13 05:54:54;;;;;;;8.25;7.45;;;;;;;10.81;100.00;63112.94;5003016;28;20278;-77
2023/05/13 05:57:22;;;;;;;10.90;8.32;;;;;;;11.09;100.00;63141.94;5004017;28;20227;-76
2023/05/13 05:59:51;;;;;;;10.77;7.25;;;;;;;11.10;100.00;63142.44;5006925;28;20210;-77
2023/05/13 06:02:18;;;;;;;12.65;8.45;;;;;;;11.41;100.00;63169.97;5003060;28;20224;-77
2023/05/13 06:04:45;;;;;;;9.98;8.15;;;;;;;11.01;100.00;63130.59;5006801;28;20195;-75
2023/05/13 06:07:12;;;;;;;9.27;8.38;;;;;;;10.78;100.00;63109.31;5007356;28;20636;-75
2023/05/13 06:09:39;;;;;;;12.63;9.60;;;;;;;10.42;100.00;63072.56;5003603;28;20233;-76
2023/05/13 06:12:07;;;;;;;11.48;8.30;;;;;;;10.34;100.00;63064.81;5002791;28;20223;-76
2023/05/13 06:14:36;;;;;;;16.60;9.15;;;;;;;10.47;100.00;63078.25;5001573;28;20445;-77
2023/05/13 06:17:03;;;;;;;14.23;8.93;;;;;;;10.81;100.00;63109.88;5002787;28;20738;-77
2023/05/13 06:19:30;;;;;;;10.73;9.13;;;;;;;11.09;100.00;63141.94;5007981;28;20218;-75
2023/05/13 06:21:57;;;;;;;10.68;8.77;;;;;;;11.42;100.00;63178.66;5009494;28;20231;-77
2023/05/13 06:24:24;;;;;;;7.82;7.13;;;;;;;11.70;100.00;63207.16;5006778;28;20203;-74
2023/05/13 06:26:51;;;;;;;10.25;8.45;;;;;;;11.27;100.00;63157.50;5005495;28;20239;-75
2023/05/13 06:29:18;;;;;;;11.40;8.80;;;;;;;11.20;100.00;63152.81;5006038;28;20204;-75
2023/05/13 06:31:47;;;;;;;10.07;8.73;;;;;;;11.42;100.00;63175.59;5008386;28;20219;-75
2023/05/13 06:34:15;;;;;;;14.35;8.75;;;;;;;11.51;100.00;63187.44;5007436;28;20218;-77
2023/05/13 06:36:43;;;;;;;12.82;7.70;;;;;;;11.46;100.00;63177.16;5002092;28;20415;-76
2023/05/13 06:39:10;;;;;;;11.20;8.30;;;;;;;11.62;100.00;63199.38;5006351;28;20196;-76
2023/05/13 06:41:38;;;;;;;10.88;8.25;;;;;;;11.68;100.00;63202.53;5007707;28;20305;-78
2023/05/13 06:44:05;;;;;;;9.88;7.53;;;;;;;12.04;99.78;63241.88;5006261;28;20201;-78
2023/05/13 06:46:32;;;;;;;10.88;8.77;;;;;;;11.68;100.00;63200.00;5005811;28;20238;-74
2023/05/13 06:49:01;;;;;;;9.38;8.50;;;;;;;11.82;100.00;63213.97;5004872;28;20203;-76
2023/05/13 06:51:30;;;;;;;14.05;9.48;;;;;;;11.45;100.00;63176.66;5008307;28;20219;-77
2023/05/13 06:53:57;;;;;;;11.77;8.98;;;;;;;11.46;100.00;63177.69;5006930;28;20270;-77
2023/05/13 06:56:24;;;;;;;10.18;8.20;;;;;;;11.81;100.00;63220.59;5004622;28;20224;-75
2023/05/13 06:58:52;;;;;;;8.93;7.55;;;;;;;11.90;96.69;63222.78;5005643;28;20552;-77
2023/05/13 07:01:19;;;;;;;12.40;8.68;;;;;;;12.09;96.38;63244.50;5009338;28;20227;-79
2023/05/13 07:03:46;;;;;;;14.77;7.78;;;;;;;12.06;97.50;63239.34;5004984;28;20219;-78
2023/05/13 07:06:15;;;;;;;10.95;8.88;;;;;;;12.01;96.67;63241.81;5002647;28;20230;-76
2023/05/13 07:08:42;;;;;;;9.85;8.77;;;;;;;12.12;95.78;63248.13;5007963;28;20195;-79
2023/05/13 07:11:09;;;;;;;9.50;7.22;;;;;;;12.54;93.07;63291.16;5005377;28;20492;-78
2023/05/13 07:13:37;;;;;;;10.55;7.75;;;;;;;12.50;90.03;63284.44;4989267;28;20211;-75
2023/05/13 07:16:05;;;;;;;11.13;7.63;;;;;;;12.72;90.15;63307.78;5007258;28;20227;-77
2023/05/13 07:18:32;;;;;;;7.88;6.88;;;;;;;12.90;86.10;63325.41;5006914;28;20195;-75
2023/05/13 07:20:59;;;;;;;12.43;7.55;;;;;;;12.88;86.46;63328.97;4994401;28;20211;-75
2023/05/13 07:23:30;;;;;;;10.27;7.97;;;;;;;12.63;89.14;63300.50;5005898;28;20397;-77
2023/05/13 07:25:57;;;;;;;9.52;7.55;;;;;;;12.51;90.10;63285.50;5006795;28;20416;-77
2023/05/13 07:28:25;;;;;;;12.32;7.55;;;;;;;12.47;90.09;63281.88;5005111;28;20211;-77
2023/05/13 07:30:52;;;;;;;11.05;8.13;;;;;;;12.97;87.84;63332.66;4994203;28;20231;-78
2023/05/13 07:33:19;;;;;;;10.60;7.60;;;;;;;12.95;87.05;63333.16;5004151;28;20238;-77
2023/05/13 07:35:46;;;;;;;12.35;8.07;;;;;;;12.94;86.59;63327.53;5007030;28;20208;-78
2023/05/13 07:38:13;;;;;;;9.27;7.75;;;;;;;12.76;87.85;63314.47;5001770;28;20216;-75
2023/05/13 07:40:42;;;;;;;9.45;7.00;;;;;;;12.63;89.46;63295.38;5008500;28;20210;-78
2023/05/13 07:43:09;;;;;;;11.93;7.50;;;;;;;13.08;86.38;63344.09;5007836;28;20428;-77
2023/05/13 07:45:38;;;;;;;16.45;8.07;;;;;;;13.01;86.47;63341.94;5006188;28;20217;-77
2023/05/13 07:48:06;;;;;;;10.93;7.60;;;;;;;13.22;87.05;63366.31;4999189;28;20223;-76
2023/05/13 07:50:33;;;;;;;10.70;7.57;;;;;;;13.02;86.22;63338.41;5009557;28;20519;-77
2023/05/13 07:53:01;;;;;;;10.10;8.57;;;;;;;12.83;86.04;63321.22;5004944;28;20532;-77
2023/05/13 07:55:28;;;;;;;8.82;7.85;;;;;;;12.61;87.78;63298.41;4996209;28;20215;-76
2023/05/13 07:57:57;;;;;;;12.20;7.60;;;;;;;12.66;85.59;63301.56;5005815;28;20277;-77
2023/05/13 08:00:25;;;;;;;9.18;7.43;;;;;;;12.76;87.12;63313.97;5009095;28;20234;-78
2023/05/13 08:02:52;;;;;;;14.30;8.02;;;;;;;13.03;86.87;63339.41;5006772;28;20478;-78
2023/05/13 08:05:19;;;;;;;11.20;7.38;;;;;;;13.43;84.34;63380.41;5002185;28;20650;-78
2023/05/13 08:07:46;;;;;;;13.48;8.43;;;;;;;13.43;81.85;63382.97;5007531;28;20243;-77
2023/05/13 08:10:13;;;;;;;12.65;7.60;;;;;;;13.77;80.06;63416.19;5007630;28;20219;-76
2023/05/13 08:12:40;;;;;;;8.55;7.00;;;;;;;13.93;78.43;63434.84;5007235;28;20295;-76
2023/05/13 08:15:10;;;;;;;9.55;7.40;;;;;;;13.82;78.53;63423.44;4996421;28;20455;-78
2023/05/13 08:17:38;;;;;;;7.95;7.15;;;;;;;13.72;83.52;63413.56;5007870;28;20219;-78
2023/05/13 08:20:05;;;;;;;10.93;7.95;;;;;;;13.64;79.91;63404.75;5006954;28;20300;-77
2023/05/13 08:22:33;;;;;;;8.88;7.00;;;;;;;13.57;81.06;63400.56;5003624;28;20438;-78
2023/05/13 08:25:00;;;;;;;9.32;7.63;;;;;;;13.77;79.25;63418.25;5004846;28;20207;-77
2023/05/13 08:27:27;;;;;;;8.70;7.00;;;;;;;13.93;78.95;63435.38;5005205;28;20235;-76
2023/05/13 08:29:54;;;;;;;7.65;6.85;;;;;;;13.83;77.28;63422.44;5004894;28;20191;-77
2023/05/13 08:32:23;;;;;;;7.82;6.43;;;;;;;14.20;80.81;63459.81;5003002;28;20234;-77
2023/05/13 08:34:50;;;;;;;10.75;7.60;;;;;;;14.63;73.26;63507.56;5007853;28;20200;-77
2023/05/13 08:37:17;;;;;;;7.68;6.88;;;;;;;14.80;73.72;63527.25;5007039;28;20215;-77
2023/05/13 08:39:45;;;;;;;7.75;5.97;;;;;;;14.93;70.98;63536.16;5006716;28;20203;-79
2023/05/13 08:42:18;;;;;;;7.38;6.40;;;;;;;14.67;69.77;63509.16;5004160;28;20286;-77
2023/05/13 08:44:45;;;;;;;7.45;6.13;;;;;;;14.67;67.00;63514.28;5007657;28;20191;-76
2023/05/13 08:47:26;;;;;;;10.75;6.57;;;;;;;14.76;66.59;63515.41;5007630;28;20262;-77
2023/05/13 08:49:55;;;;;;;6.28;5.05;;;;;;;14.58;67.01;63499.28;5005887;28;20209;-77
2023/05/13 08:52:23;;;;;;;8.98;5.75;;;;;;;14.33;68.73;63476.41;5005415;28;20223;-78
2023/05/13 08:54:50;;;;;;;7.55;5.55;;;;;;;14.68;65.52;63507.09;5007698;28;20228;-78
2023/05/13 08:57:18;;;;;;;6.97;5.93;;;;;;;14.95;63.36;63540.81;5013407;28;20578;-76
2023/05/13 08:59:45;;;;;;;7.18;5.97;;;;;;;14.68;68.30;63512.25;5004415;28;20203;-75
2023/05/13 09:02:12;;;;;;;11.77;6.05;;;;;;;14.93;65.11;63538.72;5012935;28;20219;-77
2023/05/13 09:04:41;;;;;;;8.82;4.82;;;;;;;14.89;63.04;63537.13;5012060;28;20359;-76
2023/05/13 09:07:11;;;;;;;4.95;4.43;;;;;;;15.07;67.43;63550.19;5011498;28;20230;-80
2023/05/13 09:09:38;;;;;;;9.52;5.20;;;;;;;15.24;61.84;63569.91;5005137;28;20206;-77
2023/05/13 09:12:06;;;;;;;5.72;5.13;;;;;;;15.26;59.00;63569.94;5010307;28;20236;-78
2023/05/13 09:14:34;;;;;;;7.70;5.88;;;;;;;15.45;60.91;63594.81;5011261;28;20199;-78
2023/05/13 09:17:02;;;;;;;7.57;5.38;;;;;;;15.64;58.67;63611.50;5011442;28;20241;-77
2023/05/13 09:19:29;;;;;;;6.45;5.82;;;;;;;15.48;61.54;63594.88;5010245;28;20225;-77
2023/05/13 09:21:57;;;;;;;8.45;5.20;;;;;;;15.44;60.30;63591.22;5011607;28;20600;-77
2023/05/13 09:24:26;;;;;;;6.10;5.03;;;;;;;15.24;61.14;63569.91;5012624;28;20195;-78
2023/05/13 09:26:53;;;;;;;7.15;5.45;;;;;;;15.41;61.26;63590.16;5010199;28;20249;-80
2023/05/13 09:29:25;;;;;;;8.77;6.10;;;;;;;15.54;60.41;63599.06;5011776;28;20203;-76
2023/05/13 09:31:54;;;;;;;7.68;6.00;;;;;;;15.70;59.90;63620.81;5014297;28;20434;-76
2023/05/13 09:34:29;;;;;;;6.20;5.57;;;;;;;15.81;60.75;63627.13;5013042;28;20199;-77
2023/05/13 09:37:02;;;;;;;6.53;4.82;;;;;;;15.97;59.27;63645.81;5005438;28;20527;-78
2023/05/13 09:39:33;;;;;;;6.75;5.72;;;;;;;16.08;59.32;63660.31;5011673;28;20221;-78
2023/05/13 09:42:01;;;;;;;6.90;5.85;;;;;;;16.07;58.08;63656.19;5011984;28;20218;-78
2023/05/13 09:44:28;;;;;;;11.00;5.97;;;;;;;16.06;59.26;63653.13;5003335;28;20226;-76
2023/05/13 09:46:55;;;;;;;7.32;6.05;;;;;;;16.33;58.51;63685.28;5012644;28;20261;-77
2023/05/13 09:49:23;;;;;;;5.85;5.10;;;;;;;16.64;57.44;63717.56;5012315;28;20194;-77
2023/05/13 09:51:51;;;;;;;5.82;5.25;;;;;;;16.80;60.23;63732.16;5012342;28;20272;-80
2023/05/13 09:54:18;;;;;;;6.70;6.10;;;;;;;16.68;58.50;63719.69;5010689;28;20203;-76
2023/05/13 09:56:47;;;;;;;6.03;5.43;;;;;;;16.80;57.95;63732.16;5012392;28;20226;-77
2023/05/13 09:59:16;;;;;;;7.03;5.63;;;;;;;16.98;57.80;63753.47;5012162;28;20387;-79
2023/05/13 10:01:44;;;;;;;8.73;5.28;;;;;;;16.73;59.36;63729.50;5009245;28;20234;-77
2023/05/13 10:04:11;;;;;;;7.22;5.25;;;;;;;16.86;59.93;63737.91;5008783;28;20266;-75
2023/05/13 10:06:39;;;;;;;8.13;5.70;;;;;;;16.75;58.03;63729.53;5009950;28;20242;-77
2023/05/13 10:09:10;;;;;;;8.77;5.78;;;;;;;16.27;60.61;63673.91;5008443;28;20197;-78
2023/05/13 10:11:37;;;;;;;6.25;5.18;;;;;;;16.25;58.87;63676.97;5001097;28;20218;-76
2023/05/13 10:14:07;;;;;;;9.48;6.70;;;;;;;15.89;59.91;63643.13;5007247;28;20210;-76
2023/05/13 10:16:35;;;;;;;5.50;5.00;;;;;;;16.06;62.56;63657.72;5007246;28;20225;-77
2023/05/13 10:19:03;;;;;;;7.90;5.10;;;;;;;16.28;59.64;63678.03;5006474;28;20258;-75
2023/05/13 10:21:31;;;;;;;6.20;4.78;;;;;;;16.22;59.30;63673.84;5004788;28;20274;-76
2023/05/13 10:24:00;;;;;;;5.07;4.70;;;;;;;16.49;57.96;63701.97;5008407;28;20199;-76
2023/05/13 10:26:28;;;;;;;7.78;4.85;;;;;;;16.78;56.86;63724.41;5007326;28;20502;-76
2023/05/13 10:28:57;;;;;;;7.93;5.47;;;;;;;16.76;56.66;63730.03;5006235;28;20218;-75
2023/05/13 10:31:27;;;;;;;5.68;5.03;;;;;;;17.13;58.85;63766.00;5005231;28;20241;-78
2023/05/13 10:33:54;;;;;;;6.53;5.93;;;;;;;17.75;54.97;63832.59;5006845;28;20198;-77
2023/05/13 10:36:38;;;;;;;6.85;5.95;;;;;;;17.94;53.95;63852.41;5007037;28;20254;-77
2023/05/13 10:39:33;;;;;;;6.57;5.82;;;;;;;18.25;55.67;63880.06;4999744;28;20252;-79
2023/05/13 10:42:29;;;;;;;5.72;5.22;;;;;;;18.73;52.45;63932.16;5000979;28;20233;-78
2023/05/13 10:44:58;;;;;;;6.50;5.53;;;;;;;18.38;51.00;63898.22;5006745;28;20198;-76
2023/05/13 10:47:27;;;;;;;6.25;5.72;;;;;;;17.86;52.40;63842.00;5005411;28;20289;-76
2023/05/13 10:49:55;;;;;;;10.27;5.28;;;;;;;17.71;53.10;63828.44;5007533;28;20266;-79
2023/05/13 10:52:22;;;;;;;6.00;5.40;;;;;;;17.99;52.14;63855.56;5008397;28;20225;-78
2023/05/13 10:55:01;;;;;;;7.10;5.80;;;;;;;17.76;52.29;63831.59;5007640;28;20198;-76
2023/05/13 10:57:30;;;;;;;6.85;5.55;;;;;;;17.43;54.46;63802.34;4993224;28;20237;-78
2023/05/13 11:00:18;;;;;;;6.55;5.95;;;;;;;17.65;54.19;63822.72;5007872;28;20210;-77
2023/05/13 11:02:52;;;;;;;6.97;6.15;;;;;;;17.54;52.21;63806.13;5007863;28;20269;-76
2023/05/13 11:05:22;;;;;;;8.05;5.72;;;;;;;17.59;53.95;63819.03;5006009;28;20203;-77
2023/05/13 11:07:56;;;;;;;7.03;6.30;;;;;;;17.95;53.11;63850.84;5007604;28;20243;-77
2023/05/13 11:10:29;;;;;;;10.20;5.93;;;;;;;18.32;51.30;63889.94;5008050;28;20440;-76
2023/05/13 11:13:20;;;;;;;8.50;5.60;;;;;;;18.15;52.49;63872.22;5007261;28;20230;-76
2023/05/13 11:15:50;;;;;;;9.85;5.15;;;;;;;18.49;51.06;63904.56;4991746;28;20214;-77
2023/05/13 11:18:19;;;;;;;6.88;5.57;;;;;;;18.80;50.40;63936.34;5006806;28;20223;-76
2023/05/13 11:20:48;;;;;;;7.28;5.68;;;;;;;18.81;50.46;63943.06;5008470;28;20203;-77
2023/05/13 11:23:19;;;;;;;9.80;6.22;;;;;;;18.74;51.75;63933.19;5006737;28;20382;-76
2023/05/13 11:25:46;;;;;;;6.05;5.53;;;;;;;19.08;50.53;63966.06;5007166;28;20230;-76
2023/05/13 11:28:18;;;;;;;8.68;6.00;;;;;;;19.40;51.60;64004.06;5008622;28;20417;-76
2023/05/13 11:30:55;;;;;;;6.25;5.60;;;;;;;19.58;49.34;64022.84;5002535;28;20203;-78
2023/05/13 11:33:23;;;;;;;9.38;5.75;;;;;;;19.27;48.41;63991.03;5007855;28;20266;-77
2023/05/13 11:35:55;;;;;;;9.07;4.85;;;;;;;19.35;49.10;63999.38;5007053;28;20233;-76
2023/05/13 11:38:23;;;;;;;6.43;5.18;;;;;;;19.58;48.83;64017.16;5007293;28;20270;-77